sensor_id;sensor_type;location;lat;lon;timestamp;temperature;humidity
36002;DHT22;22070;50.922;5.430;2024-02-23T00:01:44;6.80;99.90
36002;DHT22;22070;50.922;5.430;2024-02-23T00:04:10;6.70;99.90
36002;DHT22;22070;50.922;5.430;2024-02-23T00:06:36;6.60;99.90
36002;DHT22;22070;50.922;5.430;2024-02-23T00:09:01;6.50;99.90
36002;DHT22;22070;50.922;5.430;2024-02-23T00:11:27;6.60;99.90
36002;DHT22;22070;50.922;5.430;2024-02-23T00:13:54;6.60;99.90
36002;DHT22;22070;50.922;5.430;2024-02-23T00:16:19;6.50;99.90
36002;DHT22;22070;50.922;5.430;2024-02-23T00:18:45;6.60;99.90
36002;DHT22;22070;50.922;5.430;2024-02-23T00:21:11;6.60;99.90
36002;DHT22;22070;50.922;5.430;2024-02-23T00:23:36;6.60;99.90
36002;DHT22;22070;50.922;5.430;2024-02-23T00:26:02;6.60;99.90
36002;DHT22;22070;50.922;5.430;2024-02-23T00:28:28;6.60;99.90
36002;DHT22;22070;50.922;5.430;2024-02-23T00:30:54;6.60;99.90
36002;DHT22;22070;50.922;5.430;2024-02-23T00:33:19;6.60;99.90
36002;DHT22;22070;50.922;5.430;2024-02-23T00:35:45;6.60;99.90
36002;DHT22;22070;50.922;5.430;2024-02-23T00:38:10;6.60;99.90
36002;DHT22;22070;50.922;5.430;2024-02-23T00:40:36;6.50;99.90
36002;DHT22;22070;50.922;5.430;2024-02-23T00:43:02;6.50;99.90
36002;DHT22;22070;50.922;5.430;2024-02-23T00:45:28;6.40;99.90
36002;DHT22;22070;50.922;5.430;2024-02-23T00:47:54;6.40;99.90
36002;DHT22;22070;50.922;5.430;2024-02-23T00:50:19;6.30;99.90
36002;DHT22;22070;50.922;5.430;2024-02-23T00:52:45;6.20;99.90
36002;DHT22;22070;50.922;5.430;2024-02-23T00:55:11;6.20;99.90
36002;DHT22;22070;50.922;5.430;2024-02-23T00:57:37;6.30;99.90
36002;DHT22;22070;50.922;5.430;2024-02-23T01:00:04;6.20;99.90
36002;DHT22;22070;50.922;5.430;2024-02-23T01:02:30;6.10;99.90
36002;DHT22;22070;50.922;5.430;2024-02-23T01:04:56;6.00;99.90
36002;DHT22;22070;50.922;5.430;2024-02-23T01:07:24;6.10;99.90
36002;DHT22;22070;50.922;5.430;2024-02-23T01:09:50;6.00;99.90
36002;DHT22;22070;50.922;5.430;2024-02-23T01:12:16;6.10;99.90
36002;DHT22;22070;50.922;5.430;2024-02-23T01:14:41;6.00;99.90
36002;DHT22;22070;50.922;5.430;2024-02-23T01:17:07;6.00;99.90
36002;DHT22;22070;50.922;5.430;2024-02-23T01:19:33;6.00;99.90
36002;DHT22;22070;50.922;5.430;2024-02-23T01:21:59;5.90;99.90
36002;DHT22;22070;50.922;5.430;2024-02-23T01:24:25;6.00;99.90
36002;DHT22;22070;50.922;5.430;2024-02-23T01:26:53;5.90;99.90
36002;DHT22;22070;50.922;5.430;2024-02-23T01:29:20;5.90;99.90
36002;DHT22;22070;50.922;5.430;2024-02-23T01:31:46;5.90;99.90
36002;DHT22;22070;50.922;5.430;2024-02-23T01:34:11;5.90;99.90
36002;DHT22;22070;50.922;5.430;2024-02-23T01:36:37;6.00;99.90
36002;DHT22;22070;50.922;5.430;2024-02-23T01:39:04;6.00;99.90
36002;DHT22;22070;50.922;5.430;2024-02-23T01:41:30;6.00;99.90
36002;DHT22;22070;50.922;5.430;2024-02-23T01:43:56;6.10;99.90
36002;DHT22;22070;50.922;5.430;2024-02-23T01:46:21;6.10;99.90
36002;DHT22;22070;50.922;5.430;2024-02-23T01:48:47;6.00;99.90
36002;DHT22;22070;50.922;5.430;2024-02-23T01:51:13;6.10;99.90
36002;DHT22;22070;50.922;5.430;2024-02-23T01:53:39;6.10;99.90
36002;DHT22;22070;50.922;5.430;2024-02-23T01:56:06;6.10;99.90
36002;DHT22;22070;50.922;5.430;2024-02-23T01:58:34;6.10;99.90
36002;DHT22;22070;50.922;5.430;2024-02-23T02:01:00;6.10;99.90
36002;DHT22;22070;50.922;5.430;2024-02-23T02:03:26;6.10;99.90
36002;DHT22;22070;50.922;5.430;2024-02-23T02:05:53;6.10;99.90
36002;DHT22;22070;50.922;5.430;2024-02-23T02:08:20;6.10;99.90
36002;DHT22;22070;50.922;5.430;2024-02-23T02:10:46;6.10;99.90
36002;DHT22;22070;50.922;5.430;2024-02-23T02:13:12;6.00;99.90
36002;DHT22;22070;50.922;5.430;2024-02-23T02:15:38;6.10;99.90
36002;DHT22;22070;50.922;5.430;2024-02-23T02:18:04;6.10;99.90
36002;DHT22;22070;50.922;5.430;2024-02-23T02:20:32;6.10;99.90
36002;DHT22;22070;50.922;5.430;2024-02-23T02:22:59;6.20;99.90
36002;DHT22;22070;50.922;5.430;2024-02-23T02:25:24;6.20;99.90
36002;DHT22;22070;50.922;5.430;2024-02-23T02:27:50;6.20;99.90
36002;DHT22;22070;50.922;5.430;2024-02-23T02:30:16;6.30;99.90
36002;DHT22;22070;50.922;5.430;2024-02-23T02:32:41;6.40;99.90
36002;DHT22;22070;50.922;5.430;2024-02-23T02:35:09;6.40;99.90
36002;DHT22;22070;50.922;5.430;2024-02-23T02:37:35;6.40;99.90
36002;DHT22;22070;50.922;5.430;2024-02-23T02:40:02;6.40;99.90
36002;DHT22;22070;50.922;5.430;2024-02-23T02:42:28;6.40;99.90
36002;DHT22;22070;50.922;5.430;2024-02-23T02:44:54;6.40;99.90
36002;DHT22;22070;50.922;5.430;2024-02-23T02:47:19;6.30;99.90
36002;DHT22;22070;50.922;5.430;2024-02-23T02:49:45;6.30;99.90
36002;DHT22;22070;50.922;5.430;2024-02-23T02:52:11;6.20;99.90
36002;DHT22;22070;50.922;5.430;2024-02-23T02:54:36;6.30;99.90
36002;DHT22;22070;50.922;5.430;2024-02-23T02:57:02;6.20;99.90
36002;DHT22;22070;50.922;5.430;2024-02-23T02:59:28;6.30;99.90
36002;DHT22;22070;50.922;5.430;2024-02-23T03:01:53;6.20;99.90
36002;DHT22;22070;50.922;5.430;2024-02-23T03:04:19;6.20;99.90
36002;DHT22;22070;50.922;5.430;2024-02-23T03:06:45;6.20;99.90
36002;DHT22;22070;50.922;5.430;2024-02-23T03:09:10;6.20;99.90
36002;DHT22;22070;50.922;5.430;2024-02-23T03:11:36;6.10;99.90
36002;DHT22;22070;50.922;5.430;2024-02-23T03:14:02;6.10;99.90
36002;DHT22;22070;50.922;5.430;2024-02-23T03:16:28;6.00;99.90
36002;DHT22;22070;50.922;5.430;2024-02-23T03:18:56;6.00;99.90
36002;DHT22;22070;50.922;5.430;2024-02-23T03:21:22;6.10;99.90
36002;DHT22;22070;50.922;5.430;2024-02-23T03:23:47;6.10;99.90
36002;DHT22;22070;50.922;5.430;2024-02-23T03:26:13;6.10;99.90
36002;DHT22;22070;50.922;5.430;2024-02-23T03:28:42;6.30;99.90
36002;DHT22;22070;50.922;5.430;2024-02-23T03:31:08;6.30;99.90
36002;DHT22;22070;50.922;5.430;2024-02-23T03:33:34;6.30;99.90
36002;DHT22;22070;50.922;5.430;2024-02-23T03:35:59;6.40;99.90
36002;DHT22;22070;50.922;5.430;2024-02-23T03:38:25;6.30;99.90
36002;DHT22;22070;50.922;5.430;2024-02-23T03:40:50;6.40;99.90
36002;DHT22;22070;50.922;5.430;2024-02-23T03:43:16;6.30;99.90
36002;DHT22;22070;50.922;5.430;2024-02-23T03:45:42;6.40;99.90
36002;DHT22;22070;50.922;5.430;2024-02-23T03:48:07;6.40;99.90
36002;DHT22;22070;50.922;5.430;2024-02-23T03:50:33;6.40;99.90
36002;DHT22;22070;50.922;5.430;2024-02-23T03:52:59;6.40;99.90
36002;DHT22;22070;50.922;5.430;2024-02-23T03:55:24;6.40;99.90
36002;DHT22;22070;50.922;5.430;2024-02-23T03:57:50;6.50;99.90
36002;DHT22;22070;50.922;5.430;2024-02-23T04:00:16;6.50;99.90
36002;DHT22;22070;50.922;5.430;2024-02-23T04:02:42;6.40;99.90
36002;DHT22;22070;50.922;5.430;2024-02-23T04:05:08;6.50;99.90
36002;DHT22;22070;50.922;5.430;2024-02-23T04:07:34;6.50;99.90
36002;DHT22;22070;50.922;5.430;2024-02-23T04:09:59;6.50;99.90
36002;DHT22;22070;50.922;5.430;2024-02-23T04:12:25;6.50;99.90
36002;DHT22;22070;50.922;5.430;2024-02-23T04:14:50;6.50;99.90
36002;DHT22;22070;50.922;5.430;2024-02-23T04:17:16;6.60;99.90
36002;DHT22;22070;50.922;5.430;2024-02-23T04:19:43;6.60;99.90
36002;DHT22;22070;50.922;5.430;2024-02-23T04:22:09;6.60;99.90
36002;DHT22;22070;50.922;5.430;2024-02-23T04:24:41;6.70;99.90
36002;DHT22;22070;50.922;5.430;2024-02-23T04:27:07;6.70;99.90
36002;DHT22;22070;50.922;5.430;2024-02-23T04:29:33;6.60;99.90
36002;DHT22;22070;50.922;5.430;2024-02-23T04:32:00;6.70;99.90
36002;DHT22;22070;50.922;5.430;2024-02-23T04:34:26;6.60;99.90
36002;DHT22;22070;50.922;5.430;2024-02-23T04:36:52;6.70;99.90
36002;DHT22;22070;50.922;5.430;2024-02-23T04:39:17;6.70;99.90
36002;DHT22;22070;50.922;5.430;2024-02-23T04:41:43;6.80;99.90
36002;DHT22;22070;50.922;5.430;2024-02-23T04:44:08;6.80;99.90
36002;DHT22;22070;50.922;5.430;2024-02-23T04:46:35;6.80;99.90
36002;DHT22;22070;50.922;5.430;2024-02-23T04:49:01;6.80;99.90
36002;DHT22;22070;50.922;5.430;2024-02-23T04:51:28;6.90;99.90
36002;DHT22;22070;50.922;5.430;2024-02-23T04:53:53;7.00;99.90
36002;DHT22;22070;50.922;5.430;2024-02-23T04:56:19;6.80;99.90
36002;DHT22;22070;50.922;5.430;2024-02-23T04:58:46;6.90;99.90
36002;DHT22;22070;50.922;5.430;2024-02-23T05:01:12;6.80;99.90
36002;DHT22;22070;50.922;5.430;2024-02-23T05:03:38;6.90;99.90
36002;DHT22;22070;50.922;5.430;2024-02-23T05:06:04;6.90;99.90
36002;DHT22;22070;50.922;5.430;2024-02-23T05:08:30;6.90;99.90
36002;DHT22;22070;50.922;5.430;2024-02-23T05:10:57;7.00;99.90
36002;DHT22;22070;50.922;5.430;2024-02-23T05:13:23;6.90;99.90
36002;DHT22;22070;50.922;5.430;2024-02-23T05:15:49;6.90;99.90
36002;DHT22;22070;50.922;5.430;2024-02-23T05:18:15;6.80;99.90
36002;DHT22;22070;50.922;5.430;2024-02-23T05:20:40;6.90;99.90
36002;DHT22;22070;50.922;5.430;2024-02-23T05:23:06;6.80;99.90
36002;DHT22;22070;50.922;5.430;2024-02-23T05:25:33;6.80;99.90
36002;DHT22;22070;50.922;5.430;2024-02-23T05:27:58;6.80;99.90
36002;DHT22;22070;50.922;5.430;2024-02-23T05:30:24;6.90;99.90
36002;DHT22;22070;50.922;5.430;2024-02-23T05:32:52;7.00;99.90
36002;DHT22;22070;50.922;5.430;2024-02-23T05:35:17;6.90;99.90
36002;DHT22;22070;50.922;5.430;2024-02-23T05:37:43;7.00;99.90
36002;DHT22;22070;50.922;5.430;2024-02-23T05:40:09;6.80;99.90
36002;DHT22;22070;50.922;5.430;2024-02-23T05:42:38;6.90;99.90
36002;DHT22;22070;50.922;5.430;2024-02-23T05:45:04;6.90;99.90
36002;DHT22;22070;50.922;5.430;2024-02-23T05:47:31;6.80;99.90
36002;DHT22;22070;50.922;5.430;2024-02-23T05:49:56;6.80;99.90
36002;DHT22;22070;50.922;5.430;2024-02-23T05:52:22;6.80;99.90
36002;DHT22;22070;50.922;5.430;2024-02-23T05:54:48;6.80;99.90
36002;DHT22;22070;50.922;5.430;2024-02-23T05:57:13;6.80;99.90
36002;DHT22;22070;50.922;5.430;2024-02-23T05:59:39;6.80;99.90
36002;DHT22;22070;50.922;5.430;2024-02-23T06:02:05;6.80;99.90
36002;DHT22;22070;50.922;5.430;2024-02-23T06:04:31;6.80;99.90
36002;DHT22;22070;50.922;5.430;2024-02-23T06:06:57;6.80;99.90
36002;DHT22;22070;50.922;5.430;2024-02-23T06:09:22;6.70;99.90
36002;DHT22;22070;50.922;5.430;2024-02-23T06:11:48;6.70;99.90
36002;DHT22;22070;50.922;5.430;2024-02-23T06:14:14;6.80;99.90
36002;DHT22;22070;50.922;5.430;2024-02-23T06:16:39;6.80;99.90
36002;DHT22;22070;50.922;5.430;2024-02-23T06:19:06;6.80;99.90
36002;DHT22;22070;50.922;5.430;2024-02-23T06:21:31;6.80;99.90
36002;DHT22;22070;50.922;5.430;2024-02-23T06:23:58;6.80;99.90
36002;DHT22;22070;50.922;5.430;2024-02-23T06:26:23;6.80;99.90
36002;DHT22;22070;50.922;5.430;2024-02-23T06:28:49;6.70;99.90
36002;DHT22;22070;50.922;5.430;2024-02-23T06:31:15;6.70;99.90
36002;DHT22;22070;50.922;5.430;2024-02-23T06:33:40;6.70;99.90
36002;DHT22;22070;50.922;5.430;2024-02-23T06:36:07;6.70;99.90
36002;DHT22;22070;50.922;5.430;2024-02-23T06:38:33;6.70;99.90
36002;DHT22;22070;50.922;5.430;2024-02-23T06:40:59;6.60;99.90
36002;DHT22;22070;50.922;5.430;2024-02-23T06:43:25;6.60;99.90
36002;DHT22;22070;50.922;5.430;2024-02-23T06:45:51;6.60;99.90
36002;DHT22;22070;50.922;5.430;2024-02-23T06:48:17;6.70;99.90
36002;DHT22;22070;50.922;5.430;2024-02-23T06:50:42;6.70;99.90
36002;DHT22;22070;50.922;5.430;2024-02-23T06:53:08;6.70;99.90
36002;DHT22;22070;50.922;5.430;2024-02-23T06:55:34;6.70;99.90
36002;DHT22;22070;50.922;5.430;2024-02-23T06:58:00;6.80;99.90
36002;DHT22;22070;50.922;5.430;2024-02-23T07:00:26;6.80;99.90
36002;DHT22;22070;50.922;5.430;2024-02-23T07:02:52;6.90;99.90
36002;DHT22;22070;50.922;5.430;2024-02-23T07:05:17;6.80;99.90
36002;DHT22;22070;50.922;5.430;2024-02-23T07:07:43;6.80;99.90
36002;DHT22;22070;50.922;5.430;2024-02-23T07:10:09;6.80;99.90
36002;DHT22;22070;50.922;5.430;2024-02-23T07:12:36;6.60;99.90
36002;DHT22;22070;50.922;5.430;2024-02-23T07:15:01;6.60;99.90
36002;DHT22;22070;50.922;5.430;2024-02-23T07:17:27;6.60;99.90
36002;DHT22;22070;50.922;5.430;2024-02-23T07:19:54;6.70;99.90
36002;DHT22;22070;50.922;5.430;2024-02-23T07:22:19;6.70;99.90
36002;DHT22;22070;50.922;5.430;2024-02-23T07:24:46;6.80;99.90
36002;DHT22;22070;50.922;5.430;2024-02-23T07:27:11;6.80;99.90
36002;DHT22;22070;50.922;5.430;2024-02-23T07:29:37;6.70;99.90
36002;DHT22;22070;50.922;5.430;2024-02-23T07:32:03;6.80;99.90
36002;DHT22;22070;50.922;5.430;2024-02-23T07:34:30;6.90;99.90
36002;DHT22;22070;50.922;5.430;2024-02-23T07:36:58;7.00;99.90
36002;DHT22;22070;50.922;5.430;2024-02-23T07:39:23;6.90;99.90
36002;DHT22;22070;50.922;5.430;2024-02-23T07:41:49;6.90;99.90
36002;DHT22;22070;50.922;5.430;2024-02-23T07:44:14;6.90;99.90
36002;DHT22;22070;50.922;5.430;2024-02-23T07:46:40;7.00;99.90
36002;DHT22;22070;50.922;5.430;2024-02-23T07:49:07;7.00;99.90
36002;DHT22;22070;50.922;5.430;2024-02-23T07:51:33;7.00;99.90
36002;DHT22;22070;50.922;5.430;2024-02-23T07:53:58;6.90;99.90
36002;DHT22;22070;50.922;5.430;2024-02-23T07:56:24;6.90;99.90
36002;DHT22;22070;50.922;5.430;2024-02-23T07:58:50;6.90;99.90
36002;DHT22;22070;50.922;5.430;2024-02-23T08:01:15;7.00;99.90
36002;DHT22;22070;50.922;5.430;2024-02-23T08:03:41;7.00;99.90
36002;DHT22;22070;50.922;5.430;2024-02-23T08:06:07;7.00;99.90
36002;DHT22;22070;50.922;5.430;2024-02-23T08:08:33;7.00;99.90
36002;DHT22;22070;50.922;5.430;2024-02-23T08:11:03;7.00;99.90
36002;DHT22;22070;50.922;5.430;2024-02-23T08:13:29;7.00;99.90
36002;DHT22;22070;50.922;5.430;2024-02-23T08:15:55;7.10;99.90
36002;DHT22;22070;50.922;5.430;2024-02-23T08:18:20;7.10;99.90
36002;DHT22;22070;50.922;5.430;2024-02-23T08:20:48;7.10;99.90
36002;DHT22;22070;50.922;5.430;2024-02-23T08:23:13;7.10;99.90
36002;DHT22;22070;50.922;5.430;2024-02-23T08:25:39;7.10;99.90
36002;DHT22;22070;50.922;5.430;2024-02-23T08:28:05;7.30;99.90
36002;DHT22;22070;50.922;5.430;2024-02-23T08:30:31;7.30;99.90
36002;DHT22;22070;50.922;5.430;2024-02-23T08:32:57;7.30;99.90
36002;DHT22;22070;50.922;5.430;2024-02-23T08:35:22;7.30;99.90
36002;DHT22;22070;50.922;5.430;2024-02-23T08:37:48;7.30;99.90
36002;DHT22;22070;50.922;5.430;2024-02-23T08:40:14;7.30;99.90
36002;DHT22;22070;50.922;5.430;2024-02-23T08:42:40;7.30;99.90
36002;DHT22;22070;50.922;5.430;2024-02-23T08:45:06;7.40;99.90
36002;DHT22;22070;50.922;5.430;2024-02-23T08:47:31;7.40;99.90
36002;DHT22;22070;50.922;5.430;2024-02-23T08:49:59;7.40;99.90
36002;DHT22;22070;50.922;5.430;2024-02-23T08:52:25;7.50;99.90
36002;DHT22;22070;50.922;5.430;2024-02-23T08:54:51;7.60;99.90
36002;DHT22;22070;50.922;5.430;2024-02-23T08:57:17;7.70;99.90
36002;DHT22;22070;50.922;5.430;2024-02-23T08:59:45;7.70;99.90
36002;DHT22;22070;50.922;5.430;2024-02-23T09:02:11;7.70;99.90
36002;DHT22;22070;50.922;5.430;2024-02-23T09:04:37;7.70;99.90
36002;DHT22;22070;50.922;5.430;2024-02-23T09:07:03;7.70;99.90
36002;DHT22;22070;50.922;5.430;2024-02-23T09:09:28;7.80;99.90
36002;DHT22;22070;50.922;5.430;2024-02-23T09:11:54;7.90;99.90
36002;DHT22;22070;50.922;5.430;2024-02-23T09:14:20;7.90;99.90
36002;DHT22;22070;50.922;5.430;2024-02-23T09:16:45;7.90;99.90
36002;DHT22;22070;50.922;5.430;2024-02-23T09:19:16;7.80;99.90
36002;DHT22;22070;50.922;5.430;2024-02-23T09:21:42;7.80;99.90
36002;DHT22;22070;50.922;5.430;2024-02-23T09:24:08;7.80;99.90
36002;DHT22;22070;50.922;5.430;2024-02-23T09:26:34;7.80;99.90
36002;DHT22;22070;50.922;5.430;2024-02-23T09:28:59;7.90;99.90
36002;DHT22;22070;50.922;5.430;2024-02-23T09:31:25;7.90;99.90
36002;DHT22;22070;50.922;5.430;2024-02-23T09:33:54;7.90;99.90
36002;DHT22;22070;50.922;5.430;2024-02-23T09:36:19;8.00;99.90
36002;DHT22;22070;50.922;5.430;2024-02-23T09:38:45;8.00;99.90
36002;DHT22;22070;50.922;5.430;2024-02-23T09:41:21;8.00;99.90
36002;DHT22;22070;50.922;5.430;2024-02-23T09:43:48;8.00;99.90
36002;DHT22;22070;50.922;5.430;2024-02-23T09:46:15;7.90;99.90
36002;DHT22;22070;50.922;5.430;2024-02-23T09:48:44;7.90;99.90
36002;DHT22;22070;50.922;5.430;2024-02-23T09:51:14;7.80;99.90
36002;DHT22;22070;50.922;5.430;2024-02-23T09:53:41;7.80;99.90
36002;DHT22;22070;50.922;5.430;2024-02-23T09:56:08;7.90;99.90
36002;DHT22;22070;50.922;5.430;2024-02-23T09:58:35;8.10;99.90
36002;DHT22;22070;50.922;5.430;2024-02-23T10:01:02;8.10;99.90
36002;DHT22;22070;50.922;5.430;2024-02-23T10:03:28;8.20;99.90
36002;DHT22;22070;50.922;5.430;2024-02-23T10:05:56;8.10;99.90
36002;DHT22;22070;50.922;5.430;2024-02-23T10:08:22;8.20;99.90
36002;DHT22;22070;50.922;5.430;2024-02-23T10:10:48;8.20;99.90
36002;DHT22;22070;50.922;5.430;2024-02-23T10:13:19;8.30;99.90
36002;DHT22;22070;50.922;5.430;2024-02-23T10:15:47;8.40;99.90
36002;DHT22;22070;50.922;5.430;2024-02-23T10:18:13;8.40;99.90
36002;DHT22;22070;50.922;5.430;2024-02-23T10:20:39;8.40;99.90
36002;DHT22;22070;50.922;5.430;2024-02-23T10:23:05;8.40;99.90
36002;DHT22;22070;50.922;5.430;2024-02-23T10:25:33;8.40;99.90
36002;DHT22;22070;50.922;5.430;2024-02-23T10:28:01;8.20;99.90
36002;DHT22;22070;50.922;5.430;2024-02-23T10:30:27;8.10;99.90
36002;DHT22;22070;50.922;5.430;2024-02-23T10:32:56;8.10;99.90
36002;DHT22;22070;50.922;5.430;2024-02-23T10:35:22;8.10;99.90
36002;DHT22;22070;50.922;5.430;2024-02-23T10:37:49;8.20;99.90
36002;DHT22;22070;50.922;5.430;2024-02-23T10:40:20;8.10;99.90
36002;DHT22;22070;50.922;5.430;2024-02-23T10:42:47;8.10;99.90
36002;DHT22;22070;50.922;5.430;2024-02-23T10:45:19;8.30;99.90
36002;DHT22;22070;50.922;5.430;2024-02-23T10:47:48;8.40;99.90
36002;DHT22;22070;50.922;5.430;2024-02-23T10:50:14;8.60;99.90
36002;DHT22;22070;50.922;5.430;2024-02-23T10:52:42;8.70;99.90
36002;DHT22;22070;50.922;5.430;2024-02-23T10:55:12;8.80;99.90
36002;DHT22;22070;50.922;5.430;2024-02-23T10:57:38;8.90;99.90
36002;DHT22;22070;50.922;5.430;2024-02-23T11:00:05;8.90;99.90
36002;DHT22;22070;50.922;5.430;2024-02-23T11:02:43;8.90;99.90
36002;DHT22;22070;50.922;5.430;2024-02-23T11:05:09;8.70;99.90
36002;DHT22;22070;50.922;5.430;2024-02-23T11:07:40;8.80;99.90
36002;DHT22;22070;50.922;5.430;2024-02-23T11:10:06;8.80;99.90
36002;DHT22;22070;50.922;5.430;2024-02-23T11:12:34;8.90;99.90
36002;DHT22;22070;50.922;5.430;2024-02-23T11:15:01;9.00;99.90
36002;DHT22;22070;50.922;5.430;2024-02-23T11:17:28;9.10;99.90
36002;DHT22;22070;50.922;5.430;2024-02-23T11:19:55;9.00;99.90
36002;DHT22;22070;50.922;5.430;2024-02-23T11:22:26;9.10;99.90
36002;DHT22;22070;50.922;5.430;2024-02-23T11:24:52;9.20;99.90
36002;DHT22;22070;50.922;5.430;2024-02-23T11:27:18;9.30;99.90
36002;DHT22;22070;50.922;5.430;2024-02-23T11:29:47;9.20;99.90
36002;DHT22;22070;50.922;5.430;2024-02-23T11:32:16;9.30;99.90
36002;DHT22;22070;50.922;5.430;2024-02-23T11:34:55;9.40;99.90
36002;DHT22;22070;50.922;5.430;2024-02-23T11:37:22;9.20;99.90
36002;DHT22;22070;50.922;5.430;2024-02-23T11:39:48;9.10;99.90
36002;DHT22;22070;50.922;5.430;2024-02-23T11:42:14;9.00;99.90
36002;DHT22;22070;50.922;5.430;2024-02-23T11:44:40;9.00;99.90
36002;DHT22;22070;50.922;5.430;2024-02-23T11:47:07;8.90;99.90
36002;DHT22;22070;50.922;5.430;2024-02-23T11:49:33;8.90;99.90
36002;DHT22;22070;50.922;5.430;2024-02-23T11:51:59;8.90;99.90
36002;DHT22;22070;50.922;5.430;2024-02-23T11:54:24;9.00;99.90
36002;DHT22;22070;50.922;5.430;2024-02-23T11:56:51;8.90;99.90
36002;DHT22;22070;50.922;5.430;2024-02-23T11:59:20;9.00;99.90
36002;DHT22;22070;50.922;5.430;2024-02-23T12:01:46;9.00;99.90
36002;DHT22;22070;50.922;5.430;2024-02-23T12:04:15;9.00;99.90
36002;DHT22;22070;50.922;5.430;2024-02-23T12:06:42;9.00;99.90
36002;DHT22;22070;50.922;5.430;2024-02-23T12:09:08;9.10;99.90
36002;DHT22;22070;50.922;5.430;2024-02-23T12:11:34;9.10;99.90
36002;DHT22;22070;50.922;5.430;2024-02-23T12:14:01;9.10;99.90
36002;DHT22;22070;50.922;5.430;2024-02-23T12:16:28;9.10;99.90
36002;DHT22;22070;50.922;5.430;2024-02-23T12:18:55;9.10;99.90
36002;DHT22;22070;50.922;5.430;2024-02-23T12:21:22;9.10;99.90
36002;DHT22;22070;50.922;5.430;2024-02-23T12:23:49;9.20;99.90
36002;DHT22;22070;50.922;5.430;2024-02-23T12:26:16;9.20;99.90
36002;DHT22;22070;50.922;5.430;2024-02-23T12:28:43;9.30;99.90
36002;DHT22;22070;50.922;5.430;2024-02-23T12:31:08;9.40;99.90
36002;DHT22;22070;50.922;5.430;2024-02-23T12:33:36;9.40;99.90
36002;DHT22;22070;50.922;5.430;2024-02-23T12:36:03;9.50;99.90
36002;DHT22;22070;50.922;5.430;2024-02-23T12:38:29;9.40;99.90
36002;DHT22;22070;50.922;5.430;2024-02-23T12:40:55;9.50;99.90
36002;DHT22;22070;50.922;5.430;2024-02-23T12:43:21;9.60;99.90
36002;DHT22;22070;50.922;5.430;2024-02-23T12:45:52;9.50;99.90
36002;DHT22;22070;50.922;5.430;2024-02-23T12:48:18;9.40;99.90
36002;DHT22;22070;50.922;5.430;2024-02-23T12:50:45;9.50;99.90
36002;DHT22;22070;50.922;5.430;2024-02-23T12:53:30;9.70;99.90
36002;DHT22;22070;50.922;5.430;2024-02-23T12:56:03;9.60;99.90
36002;DHT22;22070;50.922;5.430;2024-02-23T12:58:30;9.60;99.90
36002;DHT22;22070;50.922;5.430;2024-02-23T13:00:56;9.50;99.90
36002;DHT22;22070;50.922;5.430;2024-02-23T13:03:24;9.50;99.90
36002;DHT22;22070;50.922;5.430;2024-02-23T13:05:50;9.40;99.90
36002;DHT22;22070;50.922;5.430;2024-02-23T13:08:16;9.50;99.90
36002;DHT22;22070;50.922;5.430;2024-02-23T13:10:42;9.60;99.90
36002;DHT22;22070;50.922;5.430;2024-02-23T13:13:07;9.70;99.90
36002;DHT22;22070;50.922;5.430;2024-02-23T13:15:33;9.80;99.90
36002;DHT22;22070;50.922;5.430;2024-02-23T13:17:58;9.60;99.90
36002;DHT22;22070;50.922;5.430;2024-02-23T13:20:24;9.50;99.90
36002;DHT22;22070;50.922;5.430;2024-02-23T13:22:50;9.60;99.90
36002;DHT22;22070;50.922;5.430;2024-02-23T13:25:15;9.60;99.90
36002;DHT22;22070;50.922;5.430;2024-02-23T13:27:41;9.60;99.90
36002;DHT22;22070;50.922;5.430;2024-02-23T13:30:07;9.50;99.90
36002;DHT22;22070;50.922;5.430;2024-02-23T13:32:33;9.40;99.90
36002;DHT22;22070;50.922;5.430;2024-02-23T13:34:59;9.40;99.90
36002;DHT22;22070;50.922;5.430;2024-02-23T13:37:26;9.40;99.90
36002;DHT22;22070;50.922;5.430;2024-02-23T13:39:51;9.60;99.90
36002;DHT22;22070;50.922;5.430;2024-02-23T13:42:17;9.60;99.90
36002;DHT22;22070;50.922;5.430;2024-02-23T13:44:43;9.50;99.90
36002;DHT22;22070;50.922;5.430;2024-02-23T13:47:11;9.50;99.90
36002;DHT22;22070;50.922;5.430;2024-02-23T13:49:37;9.60;99.90
36002;DHT22;22070;50.922;5.430;2024-02-23T13:52:03;9.60;99.90
36002;DHT22;22070;50.922;5.430;2024-02-23T13:54:29;9.70;99.90
36002;DHT22;22070;50.922;5.430;2024-02-23T13:56:54;9.60;99.90
36002;DHT22;22070;50.922;5.430;2024-02-23T13:59:20;9.50;99.90
36002;DHT22;22070;50.922;5.430;2024-02-23T14:01:46;9.60;99.90
36002;DHT22;22070;50.922;5.430;2024-02-23T14:04:12;9.60;99.90
36002;DHT22;22070;50.922;5.430;2024-02-23T14:06:38;9.60;99.90
36002;DHT22;22070;50.922;5.430;2024-02-23T14:09:03;9.70;99.90
36002;DHT22;22070;50.922;5.430;2024-02-23T14:11:30;9.60;99.90
36002;DHT22;22070;50.922;5.430;2024-02-23T14:13:56;9.50;99.90
36002;DHT22;22070;50.922;5.430;2024-02-23T14:16:22;9.50;99.90
36002;DHT22;22070;50.922;5.430;2024-02-23T14:18:49;9.60;99.90
36002;DHT22;22070;50.922;5.430;2024-02-23T14:21:15;9.60;99.90
36002;DHT22;22070;50.922;5.430;2024-02-23T14:23:42;9.60;99.90
36002;DHT22;22070;50.922;5.430;2024-02-23T14:26:08;9.70;99.90
36002;DHT22;22070;50.922;5.430;2024-02-23T14:28:33;9.70;99.90
36002;DHT22;22070;50.922;5.430;2024-02-23T14:30:59;9.80;99.90
36002;DHT22;22070;50.922;5.430;2024-02-23T14:33:25;9.70;99.90
36002;DHT22;22070;50.922;5.430;2024-02-23T14:35:51;9.90;99.90
36002;DHT22;22070;50.922;5.430;2024-02-23T14:38:16;9.80;99.90
36002;DHT22;22070;50.922;5.430;2024-02-23T14:40:42;9.80;99.90
36002;DHT22;22070;50.922;5.430;2024-02-23T14:43:08;9.90;99.90
36002;DHT22;22070;50.922;5.430;2024-02-23T14:45:35;9.90;99.90
36002;DHT22;22070;50.922;5.430;2024-02-23T14:48:01;9.90;99.90
36002;DHT22;22070;50.922;5.430;2024-02-23T14:50:28;9.90;99.90
36002;DHT22;22070;50.922;5.430;2024-02-23T14:52:53;9.90;99.90
36002;DHT22;22070;50.922;5.430;2024-02-23T14:55:19;9.90;99.90
36002;DHT22;22070;50.922;5.430;2024-02-23T14:57:45;9.90;99.90
36002;DHT22;22070;50.922;5.430;2024-02-23T15:00:11;9.80;99.90
36002;DHT22;22070;50.922;5.430;2024-02-23T15:02:38;9.90;99.90
36002;DHT22;22070;50.922;5.430;2024-02-23T15:05:05;9.80;99.90
36002;DHT22;22070;50.922;5.430;2024-02-23T15:07:31;9.80;99.90
36002;DHT22;22070;50.922;5.430;2024-02-23T15:09:57;9.70;99.90
36002;DHT22;22070;50.922;5.430;2024-02-23T15:12:23;9.80;99.90
36002;DHT22;22070;50.922;5.430;2024-02-23T15:14:50;9.60;99.90
36002;DHT22;22070;50.922;5.430;2024-02-23T15:17:16;9.70;99.90
36002;DHT22;22070;50.922;5.430;2024-02-23T15:19:42;9.80;99.90
36002;DHT22;22070;50.922;5.430;2024-02-23T15:22:08;9.80;99.90
36002;DHT22;22070;50.922;5.430;2024-02-23T15:24:39;9.80;99.90
36002;DHT22;22070;50.922;5.430;2024-02-23T15:27:07;9.80;99.90
36002;DHT22;22070;50.922;5.430;2024-02-23T15:29:33;9.90;99.90
36002;DHT22;22070;50.922;5.430;2024-02-23T15:31:59;10.10;99.90
36002;DHT22;22070;50.922;5.430;2024-02-23T15:34:24;10.10;99.90
36002;DHT22;22070;50.922;5.430;2024-02-23T15:36:50;9.90;99.90
36002;DHT22;22070;50.922;5.430;2024-02-23T15:39:15;9.90;99.90